Wenatchee, WA (98807)

2:12 AM PDT on September 23, 2014 (GMT -0700)
Pitcher Canyon | Change Station
CLOSE
Current Station
Personal Weather Station
Location: Wenatchee, WA
Elevation: 1440 ft
Nearby Weather Stations

Elev 1440 ft 47.37 °N, 120.33 °W | Updated 14 seconds ago

Partly Cloudy
Partly Cloudy
66.5 °F
Feels Like 66.5 °F
N
1.0
Wind Variable Wind from WNW
Gusts 2.0 mph

Today
High -- | Low -- °F
--% Chance of Precip.
Yesterday
High -- | Low -- °F
Precip. -- in
6:49 AM 6:56 PM
Waning Crescent, 1% visible
Pressure 29.86 in
Visibility 10.0 miles
Clouds Clear
Dew Point 47 °F
Humidity 49%
Rainfall 0.00 in
Snow Depth Not available.
UV 0 out of 12
Pollen 3.00 out of 12
Air Quality Not available.
Flu Activity Not available.
METAR KEAT 230855Z AUTO 25004KT 10SM CLR 18/09 A2988 RMK AO2 SLP110 T01830089 53002

More Conditions Fewer Conditions

Pressure 29.86 in
Visibility 10.0 miles
Clouds Clear
Dew Point 47 °F
Humidity 49%
Rainfall 0.00 in
Snow Depth Not available.
UV 0 out of 12
Pollen 3.00 out of 12
Air Quality Not available.
Flu Activity Not available.
METAR KEAT 230855Z AUTO 25004KT 10SM CLR 18/09 A2988 RMK AO2 SLP110 T01830089 53002

More Conditions Fewer Conditions

10-Day Weather Forecast

Almanac

Astronomy

Sep. 23, 2014 Rise Set
Actual Time 6:49 AM PDT 6:56 PM PDT
Civil Twilight 6:18 AM PDT 7:27 PM PDT
Nautical Twilight 5:42 AM PDT 8:03 PM PDT
Astronomical Twilight 5:05 AM PDT 8:39 PM PDT
Moon 6:18 AM PDT 6:36 PM PDT
Length of Visible Light 13h 08m
Length of Day
12h 07m
Tomorrow will be 3m 22s shorter.
Waning Crescent, 1% of the Moon is Illuminated
Today
Waning Crescent
Sep 24
New
Oct 1
First Quarter
Oct 8
Full
Oct 15
Last Quarter

Today's Extremes

State Highs State Lows

Community

WunderPhotos

Upload Photos

1,755,643 photos uploaded!

Nearby

Snow Depth

Station Depth Elevation
Sentinel Butte 0 in 4920 ft
Harts Pass 0 in 6500 ft
Moses Mountain 1 in 5300 ft
Meadows Pass 0 in 3500 ft
Burnt Mountain 0 in 4200 ft

Earthquake Activity

City Distance Mag. Time & Date
No recent earthquake activity has been reported nearby.
Minimum magnitude displayed is 2.5.

Coastal Water Temperatures

Place Temperature
No Stations Reporting

Nearby Weather Stations